createdAt,value
2023-03-24T00:00:28.417Z,12.91
2023-03-24T00:02:56.636Z,12.90
2023-03-24T00:05:23.955Z,12.95
2023-03-24T00:07:54.499Z,12.95
2023-03-24T00:10:22.630Z,12.94
2023-03-24T00:12:51.204Z,12.91
2023-03-24T00:15:21.393Z,12.91
2023-03-24T00:17:50.409Z,12.96
2023-03-24T00:20:20.680Z,12.99
2023-03-24T00:22:56.871Z,12.95
2023-03-24T00:25:28.282Z,12.93
2023-03-24T00:27:57.555Z,12.94
2023-03-24T00:30:25.969Z,12.90
2023-03-24T00:32:53.254Z,12.90
2023-03-24T00:35:20.746Z,12.92
2023-03-24T00:37:49.967Z,12.96
2023-03-24T00:40:19.527Z,13.02
2023-03-24T00:42:48.880Z,13.07
2023-03-24T00:45:20.359Z,13.08
2023-03-24T00:47:50.098Z,13.10
2023-03-24T00:50:21.179Z,13.13
2023-03-24T00:52:49.000Z,13.19
2023-03-24T00:55:17.019Z,13.23
2023-03-24T00:57:50.746Z,13.25
2023-03-24T01:00:25.551Z,13.28
2023-03-24T01:02:55.950Z,13.31
2023-03-24T01:05:28.651Z,13.32
2023-03-24T01:08:06.254Z,13.31
2023-03-24T01:10:57.413Z,13.32
2023-03-24T01:13:30.133Z,13.35
2023-03-24T01:15:57.524Z,13.34
2023-03-24T01:18:24.783Z,13.35
2023-03-24T01:20:54.174Z,13.33
2023-03-24T01:23:25.837Z,13.30
2023-03-24T01:25:54.298Z,13.31
2023-03-24T01:28:25.108Z,13.33
2023-03-24T01:30:53.812Z,13.35
2023-03-24T01:33:22.135Z,13.37
2023-03-24T01:35:50.066Z,13.39
2023-03-24T01:38:17.330Z,13.41
2023-03-24T01:40:47.407Z,13.42
2023-03-24T01:43:22.591Z,13.41
2023-03-24T01:46:09.094Z,13.44
2023-03-24T01:48:45.595Z,13.45
2023-03-24T01:51:24.388Z,13.47
2023-03-24T01:54:02.675Z,13.47
2023-03-24T01:56:35.481Z,13.44
2023-03-24T01:59:09.241Z,13.43
2023-03-24T02:01:36.689Z,13.42
2023-03-24T02:04:07.656Z,13.41
2023-03-24T02:06:41.502Z,13.40
2023-03-24T02:09:10.763Z,13.37
2023-03-24T02:11:40.641Z,13.33
2023-03-24T02:14:09.070Z,13.30
2023-03-24T02:17:19.522Z,13.27
2023-03-24T02:20:18.075Z,13.30
2023-03-24T02:22:59.825Z,13.27
2023-03-24T02:26:19.440Z,13.26
2023-03-24T02:29:06.929Z,13.25
2023-03-24T02:32:35.777Z,13.27
2023-03-24T02:35:45.188Z,13.24
2023-03-24T02:38:59.074Z,13.23
2023-03-24T02:41:48.526Z,13.20
2023-03-24T02:44:34.375Z,13.13
2023-03-24T02:47:07.094Z,13.13
2023-03-24T02:50:07.805Z,13.09
2023-03-24T02:52:54.021Z,13.01
2023-03-24T02:56:40.398Z,12.89
2023-03-24T02:59:18.029Z,12.81
2023-03-24T03:01:59.544Z,12.79
2023-03-24T03:04:34.004Z,12.74
2023-03-24T03:07:09.733Z,12.61
2023-03-24T03:09:45.666Z,12.51
2023-03-24T03:12:14.057Z,12.48
2023-03-24T03:14:50.260Z,12.49
2023-03-24T03:17:25.283Z,12.50
2023-03-24T03:20:04.964Z,12.57
2023-03-24T03:22:43.920Z,12.65
2023-03-24T03:25:15.963Z,12.66
2023-03-24T03:27:46.739Z,12.71
2023-03-24T03:30:30.084Z,12.72
2023-03-24T03:33:10.030Z,12.73
2023-03-24T03:35:50.265Z,12.78
2023-03-24T03:39:03.839Z,12.79
2023-03-24T03:41:31.219Z,12.78
2023-03-24T03:43:58.607Z,12.76
2023-03-24T03:46:27.076Z,12.72
2023-03-24T03:48:54.415Z,12.66
2023-03-24T03:51:21.387Z,12.65
2023-03-24T03:53:54.286Z,12.67
2023-03-24T03:56:24.633Z,12.72
2023-03-24T03:58:53.497Z,12.82
2023-03-24T04:01:25.548Z,12.91
2023-03-24T04:04:01.616Z,12.91
2023-03-24T04:06:50.363Z,12.89
2023-03-24T04:09:47.889Z,12.91
2023-03-24T04:13:01.891Z,12.91
2023-03-24T04:15:44.580Z,12.91
2023-03-24T04:18:26.102Z,12.91
2023-03-24T04:21:28.467Z,12.86
2023-03-24T04:24:40.087Z,12.77
2023-03-24T04:27:57.079Z,12.71
2023-03-24T04:30:50.328Z,12.71
2023-03-24T04:34:03.047Z,12.73
2023-03-24T04:36:43.631Z,12.75
2023-03-24T04:39:25.612Z,12.76
2023-03-24T04:42:02.660Z,12.80
2023-03-24T04:44:33.112Z,12.83
2023-03-24T04:47:04.667Z,12.85
2023-03-24T04:49:32.553Z,12.86
2023-03-24T04:51:59.389Z,12.70
2023-03-24T04:54:26.267Z,12.60
2023-03-24T04:56:56.521Z,12.51
2023-03-24T04:59:23.295Z,12.43
2023-03-24T05:01:50.462Z,12.53
2023-03-24T05:04:24.210Z,12.61
2023-03-24T05:06:51.156Z,12.65
2023-03-24T05:09:24.733Z,12.65
2023-03-24T05:11:52.291Z,12.65
2023-03-24T05:14:20.310Z,12.65
2023-03-24T05:16:47.210Z,12.68
2023-03-24T05:19:14.523Z,12.65
2023-03-24T05:21:41.515Z,12.64
2023-03-24T05:24:09.215Z,12.60
2023-03-24T05:26:36.209Z,12.58
2023-03-24T05:29:03.324Z,12.58
2023-03-24T05:31:30.081Z,12.57
2023-03-24T05:33:57.941Z,12.54
2023-03-24T05:36:24.850Z,12.50
2023-03-24T05:38:51.638Z,12.47
2023-03-24T05:41:18.434Z,12.45
2023-03-24T05:43:45.994Z,12.34
2023-03-24T05:46:13.033Z,12.24
2023-03-24T05:48:39.957Z,12.21
2023-03-24T05:51:07.217Z,12.21
2023-03-24T05:53:34.120Z,12.20
2023-03-24T05:56:01.254Z,12.18
2023-03-24T05:58:28.134Z,12.16
2023-03-24T06:00:54.916Z,12.16
2023-03-24T06:03:22.402Z,12.12
2023-03-24T06:05:50.725Z,12.12
2023-03-24T06:08:18.827Z,12.12
2023-03-24T06:10:45.796Z,12.17
2023-03-24T06:13:12.693Z,12.24
2023-03-24T06:15:42.882Z,12.32
2023-03-24T06:18:09.912Z,12.40
2023-03-24T06:20:36.956Z,12.45
2023-03-24T06:23:03.850Z,12.48
2023-03-24T06:25:30.627Z,12.53
2023-03-24T06:28:03.864Z,12.62
2023-03-24T06:30:30.946Z,12.69
2023-03-24T06:32:58.121Z,12.73
2023-03-24T06:35:24.982Z,12.79
2023-03-24T06:37:51.739Z,12.80
2023-03-24T06:40:19.653Z,12.82
2023-03-24T06:42:46.538Z,12.80
2023-03-24T06:45:13.362Z,12.83
2023-03-24T06:47:40.597Z,12.86
2023-03-24T06:50:08.308Z,12.84
2023-03-24T06:52:35.627Z,12.84
2023-03-24T06:55:03.251Z,12.80
2023-03-24T06:57:30.723Z,12.78
2023-03-24T06:59:57.620Z,12.78
2023-03-24T07:02:24.840Z,12.76
2023-03-24T07:04:53.993Z,12.73
2023-03-24T07:07:53.394Z,12.72
2023-03-24T07:10:10.430Z,12.74
2023-03-24T07:12:38.291Z,12.76
2023-03-24T07:15:07.350Z,12.76
2023-03-24T07:17:34.563Z,12.74
2023-03-24T07:20:01.814Z,12.69
2023-03-24T07:22:28.703Z,12.67
2023-03-24T07:24:56.308Z,12.63
2023-03-24T07:27:23.072Z,12.67
2023-03-24T07:29:49.816Z,12.70
2023-03-24T07:32:17.682Z,12.71
2023-03-24T07:34:45.767Z,12.78
2023-03-24T07:37:12.537Z,12.84
2023-03-24T07:39:39.267Z,12.87
2023-03-24T07:42:06.161Z,12.89
2023-03-24T07:44:33.016Z,12.90
2023-03-24T07:46:59.913Z,12.91
2023-03-24T07:49:27.307Z,12.89
2023-03-24T07:51:54.107Z,12.90
2023-03-24T07:54:21.682Z,12.92
2023-03-24T07:56:48.526Z,12.89
2023-03-24T07:59:17.465Z,12.80
2023-03-24T08:01:46.125Z,12.78
2023-03-24T08:04:14.411Z,12.71
2023-03-24T08:06:44.168Z,12.79
2023-03-24T08:09:12.025Z,12.83
2023-03-24T08:11:39.328Z,12.93
2023-03-24T08:14:06.502Z,12.97
2023-03-24T08:16:33.298Z,12.98
2023-03-24T08:19:00.516Z,12.97
2023-03-24T08:21:27.435Z,13.00
2023-03-24T08:23:54.170Z,13.10
2023-03-24T08:26:22.498Z,13.24
2023-03-24T08:28:52.487Z,13.31
2023-03-24T08:31:19.644Z,13.36
2023-03-24T08:33:47.341Z,13.43
2023-03-24T08:36:14.167Z,13.50
2023-03-24T08:38:41.643Z,13.59
2023-03-24T08:41:08.911Z,13.68
2023-03-24T08:43:37.373Z,13.71
2023-03-24T08:46:10.613Z,13.75
2023-03-24T08:48:41.009Z,13.72
2023-03-24T08:51:17.072Z,13.76
2023-03-24T08:53:44.891Z,13.77
2023-03-24T08:56:11.882Z,13.77
2023-03-24T08:58:38.717Z,13.75
2023-03-24T09:01:05.974Z,13.72
2023-03-24T09:03:32.823Z,13.72
2023-03-24T09:05:59.726Z,13.70
2023-03-24T09:08:27.191Z,13.70
2023-03-24T09:10:54.121Z,13.70
2023-03-24T09:13:21.250Z,13.71
2023-03-24T09:15:57.634Z,13.78
2023-03-24T09:18:25.678Z,13.83
2023-03-24T09:20:52.691Z,13.86
2023-03-24T09:23:21.497Z,13.99
2023-03-24T09:25:53.803Z,14.15
2023-03-24T09:28:22.455Z,14.37
2023-03-24T09:30:50.301Z,14.42
2023-03-24T09:33:17.622Z,14.43
2023-03-24T09:35:44.486Z,14.45
2023-03-24T09:38:12.211Z,14.61
2023-03-24T09:40:42.577Z,14.73
2023-03-24T09:43:42.515Z,14.89
2023-03-24T09:46:29.157Z,15.02
2023-03-24T09:48:57.521Z,15.34
2023-03-24T09:51:45.171Z,15.48
2023-03-24T09:54:27.960Z,15.58
2023-03-24T09:56:57.548Z,15.63
2023-03-24T09:59:39.611Z,15.75
2023-03-24T10:02:21.609Z,15.73
2023-03-24T10:04:49.889Z,15.65
2023-03-24T10:07:32.924Z,15.71
2023-03-24T10:10:01.030Z,15.95
2023-03-24T10:12:37.515Z,16.01
2023-03-24T10:18:40.265Z,15.96
2023-03-24T10:21:22.409Z,15.89
2023-03-24T10:24:08.624Z,15.82
2023-03-24T10:26:56.841Z,15.77
2023-03-24T10:29:31.832Z,15.74
2023-03-24T10:32:22.549Z,15.67
2023-03-24T10:34:58.737Z,15.70
2023-03-24T10:37:27.402Z,15.68
2023-03-24T10:39:54.147Z,15.69
2023-03-24T10:42:31.496Z,15.61
2023-03-24T10:44:58.634Z,15.62
2023-03-24T10:47:32.520Z,15.69
2023-03-24T10:50:11.979Z,15.76
2023-03-24T10:52:43.673Z,15.88
2023-03-24T10:55:17.506Z,16.07
2023-03-24T10:57:48.252Z,16.35
2023-03-24T11:00:29.687Z,16.47
2023-03-24T11:03:24.045Z,16.43
2023-03-24T11:06:03.188Z,16.38
2023-03-24T11:08:41.882Z,16.36
2023-03-24T11:11:23.835Z,16.33
2023-03-24T11:13:57.534Z,16.18
2023-03-24T11:16:32.434Z,16.35
2023-03-24T11:19:05.463Z,16.35
2023-03-24T11:21:37.037Z,16.16
2023-03-24T11:24:16.116Z,16.12
2023-03-24T11:26:56.502Z,16.10
2023-03-24T11:29:30.492Z,15.92
2023-03-24T11:32:10.911Z,15.85
2023-03-24T11:34:48.734Z,15.67
2023-03-24T11:37:26.567Z,15.61
2023-03-24T11:40:26.021Z,15.63
2023-03-24T11:43:00.446Z,15.76
2023-03-24T11:45:41.143Z,16.04
2023-03-24T11:48:35.019Z,16.30
2023-03-24T11:51:05.672Z,16.31
2023-03-24T11:53:48.718Z,16.15
2023-03-24T11:56:36.265Z,16.22
2023-03-24T11:59:52.787Z,16.18
2023-03-24T12:02:49.259Z,16.25
2023-03-24T12:05:51.259Z,16.27
2023-03-24T12:08:41.687Z,16.21
2023-03-24T12:11:22.734Z,16.22
2023-03-24T12:13:52.348Z,16.28
2023-03-24T12:16:40.475Z,16.25
2023-03-24T12:19:40.126Z,16.14
2023-03-24T12:22:21.752Z,16.07
2023-03-24T12:25:46.061Z,15.92
2023-03-24T12:28:31.012Z,15.77
2023-03-24T12:31:34.336Z,15.57
2023-03-24T12:34:14.989Z,15.49
2023-03-24T12:37:09.730Z,15.34
2023-03-24T12:40:24.087Z,14.91
2023-03-24T12:43:15.909Z,14.25
2023-03-24T12:45:56.490Z,14.03
2023-03-24T12:48:42.809Z,13.82
2023-03-24T12:51:55.143Z,13.66
2023-03-24T12:54:49.511Z,13.45
2023-03-24T12:57:21.726Z,13.37
2023-03-24T13:00:26.408Z,13.17
2023-03-24T13:03:00.627Z,12.96
2023-03-24T13:05:38.720Z,12.83
2023-03-24T13:08:22.849Z,12.80
2023-03-24T13:10:54.565Z,12.71
2023-03-24T13:13:34.293Z,12.68
2023-03-24T13:16:13.266Z,12.71
2023-03-24T13:18:47.139Z,12.67
2023-03-24T13:21:21.752Z,12.66
2023-03-24T13:23:56.435Z,12.56
2023-03-24T13:26:54.056Z,12.54
2023-03-24T13:29:48.547Z,12.48
2023-03-24T13:32:30.818Z,12.38
2023-03-24T13:35:44.941Z,12.26
2023-03-24T13:38:35.342Z,12.18
2023-03-24T13:41:07.245Z,12.17
2023-03-24T13:43:34.767Z,12.24
2023-03-24T13:46:13.856Z,12.44
2023-03-24T13:48:50.547Z,12.65
2023-03-24T13:51:25.711Z,12.72
2023-03-24T13:54:22.621Z,12.78
2023-03-24T13:56:59.471Z,12.63
2023-03-24T13:59:40.932Z,12.47
2023-03-24T14:02:30.845Z,12.43
2023-03-24T14:05:22.216Z,12.34
2023-03-24T14:07:51.414Z,12.29
2023-03-24T14:10:20.518Z,12.33
2023-03-24T14:12:59.551Z,12.34
2023-03-24T14:15:26.403Z,12.32
2023-03-24T14:18:13.891Z,12.36
2023-03-24T14:21:08.463Z,12.35
2023-03-24T14:23:40.956Z,12.40
2023-03-24T14:26:37.187Z,12.49
2023-03-24T14:29:04.268Z,12.58
2023-03-24T14:31:36.167Z,12.65
2023-03-24T14:34:21.132Z,12.72
2023-03-24T14:37:00.475Z,12.76
2023-03-24T14:39:39.940Z,12.85
2023-03-24T14:42:31.804Z,12.85
2023-03-24T14:45:01.382Z,12.85
2023-03-24T14:47:39.063Z,12.84
2023-03-24T14:50:23.422Z,12.82
2023-03-24T14:52:57.528Z,12.85
2023-03-24T14:55:26.979Z,12.85
2023-03-24T14:57:57.437Z,12.93
2023-03-24T15:01:07.104Z,12.99
2023-03-24T15:03:45.905Z,13.15
2023-03-24T15:06:23.921Z,13.24
2023-03-24T15:08:54.266Z,13.20
2023-03-24T15:11:27.151Z,13.28
2023-03-24T15:13:57.494Z,13.34
2023-03-24T15:16:28.963Z,13.41
2023-03-24T15:19:02.028Z,13.49
2023-03-24T15:22:01.194Z,13.57
2023-03-24T15:24:32.425Z,13.65
2023-03-24T15:27:17.751Z,13.67
2023-03-24T15:29:46.142Z,13.66
2023-03-24T15:32:23.143Z,13.65
2023-03-24T15:35:02.372Z,13.67
2023-03-24T15:37:47.946Z,13.75
2023-03-24T15:40:27.289Z,13.79
2023-03-24T15:42:59.104Z,13.82
2023-03-24T15:45:48.289Z,13.79
2023-03-24T15:48:23.937Z,13.84
2023-03-24T15:51:01.390Z,13.77
2023-03-24T15:53:44.394Z,13.74
2023-03-24T15:56:31.774Z,13.79
2023-03-24T15:59:15.079Z,13.80
2023-03-24T16:01:45.152Z,13.82
2023-03-24T16:04:16.930Z,13.78
2023-03-24T16:06:52.168Z,13.78
2023-03-24T16:09:22.352Z,13.78
2023-03-24T16:11:49.760Z,13.76
2023-03-24T16:14:32.370Z,13.67
2023-03-24T16:17:02.949Z,13.68
2023-03-24T16:19:29.979Z,13.65
2023-03-24T16:21:57.777Z,13.67
2023-03-24T16:24:24.749Z,13.69
2023-03-24T16:26:51.753Z,13.74
2023-03-24T16:29:22.192Z,13.75
2023-03-24T16:31:52.462Z,13.73
2023-03-24T16:34:21.800Z,13.78
2023-03-24T16:36:52.157Z,13.78
2023-03-24T16:39:23.119Z,13.78
2023-03-24T16:41:52.061Z,13.81
2023-03-24T16:44:19.774Z,13.77
2023-03-24T16:46:50.361Z,13.71
2023-03-24T16:49:19.513Z,13.64
2023-03-24T16:51:47.723Z,13.58
2023-03-24T16:54:14.906Z,13.57
2023-03-24T16:56:42.770Z,13.55
2023-03-24T16:59:10.652Z,13.53
2023-03-24T17:01:40.452Z,13.51
2023-03-24T17:04:11.875Z,13.49
2023-03-24T17:06:43.420Z,13.47
2023-03-24T17:09:11.143Z,13.42
2023-03-24T17:11:55.634Z,13.40
2023-03-24T17:14:22.940Z,13.36
2023-03-24T17:16:52.539Z,13.33
2023-03-24T17:19:22.414Z,13.31
2023-03-24T17:22:01.487Z,13.30
2023-03-24T17:24:32.709Z,13.25
2023-03-24T17:26:59.483Z,13.21
2023-03-24T17:29:26.320Z,13.21
2023-03-24T17:31:54.094Z,13.18
2023-03-24T17:34:22.313Z,13.16
2023-03-24T17:36:50.860Z,13.10
2023-03-24T17:39:21.405Z,13.02
2023-03-24T17:41:48.515Z,12.99
2023-03-24T17:44:15.489Z,12.84
2023-03-24T17:46:42.484Z,12.68
2023-03-24T17:49:09.338Z,12.58
2023-03-24T17:51:36.437Z,12.56
2023-03-24T17:54:04.176Z,12.52
2023-03-24T17:56:31.781Z,12.51
2023-03-24T17:59:03.320Z,12.46
2023-03-24T18:01:30.367Z,12.43
2023-03-24T18:03:58.166Z,12.39
2023-03-24T18:06:27.282Z,12.39
2023-03-24T18:08:54.685Z,12.37
2023-03-24T18:11:21.494Z,12.33
2023-03-24T18:13:48.270Z,12.35
2023-03-24T18:16:21.811Z,12.23
2023-03-24T18:18:50.766Z,12.25
2023-03-24T18:21:19.008Z,12.24
2023-03-24T18:23:46.666Z,12.19
2023-03-24T18:26:16.678Z,12.18
2023-03-24T18:28:45.907Z,12.14
2023-03-24T18:31:20.507Z,12.10
2023-03-24T18:33:50.124Z,12.09
2023-03-24T18:36:21.207Z,12.08
2023-03-24T18:38:51.320Z,12.08
2023-03-24T18:41:18.384Z,12.05
2023-03-24T18:43:49.848Z,12.04
2023-03-24T18:46:16.876Z,12.01
2023-03-24T18:48:44.180Z,11.96
2023-03-24T18:51:12.206Z,11.92
2023-03-24T18:53:39.017Z,11.95
2023-03-24T18:56:07.771Z,11.96
2023-03-24T18:58:38.009Z,11.97
2023-03-24T19:01:11.275Z,11.96
2023-03-24T19:03:41.052Z,11.93
2023-03-24T19:06:10.757Z,11.88
2023-03-24T19:08:41.341Z,11.89
2023-03-24T19:11:09.455Z,11.91
2023-03-24T19:13:36.981Z,11.88
2023-03-24T19:16:05.264Z,11.85
2023-03-24T19:18:32.152Z,11.88
2023-03-24T19:20:59.314Z,11.88
2023-03-24T19:23:26.840Z,11.91
2023-03-24T19:25:54.989Z,11.94
2023-03-24T19:28:29.148Z,11.93
2023-03-24T19:30:59.167Z,11.91
2023-03-24T19:33:27.669Z,11.88
2023-03-24T19:35:54.905Z,11.88
2023-03-24T19:38:23.812Z,11.92
2023-03-24T19:40:53.884Z,11.94
2023-03-24T19:43:23.682Z,11.92
2023-03-24T19:45:55.659Z,11.88
2023-03-24T19:48:23.353Z,11.90
2023-03-24T19:50:52.523Z,11.92
2023-03-24T19:53:21.115Z,11.92
2023-03-24T19:55:49.170Z,11.91
2023-03-24T19:58:16.595Z,11.89
2023-03-24T20:00:44.255Z,11.87
2023-03-24T20:03:11.728Z,11.88
2023-03-24T20:05:38.802Z,11.85
2023-03-24T20:08:05.998Z,11.86
2023-03-24T20:10:36.916Z,11.87
2023-03-24T20:13:03.839Z,11.87
2023-03-24T20:15:30.763Z,11.86
2023-03-24T20:17:57.986Z,11.87
2023-03-24T20:20:24.923Z,11.85
2023-03-24T20:22:51.893Z,11.87
2023-03-24T20:25:20.089Z,11.84
2023-03-24T20:27:47.825Z,11.86
2023-03-24T20:30:18.701Z,11.84
2023-03-24T20:32:45.871Z,11.84
2023-03-24T20:35:13.028Z,11.80
2023-03-24T20:37:39.999Z,11.78
2023-03-24T20:40:09.839Z,11.79
2023-03-24T20:42:38.016Z,11.78
2023-03-24T20:45:07.663Z,11.77
2023-03-24T20:47:36.725Z,11.76
2023-03-24T20:50:06.120Z,11.77
2023-03-24T20:52:33.135Z,11.77
2023-03-24T20:55:01.627Z,11.71
2023-03-24T20:57:30.106Z,11.68
2023-03-24T20:59:57.016Z,11.70
2023-03-24T21:02:24.376Z,11.72
2023-03-24T21:04:51.713Z,11.71
2023-03-24T21:07:18.764Z,11.77
2023-03-24T21:09:45.899Z,11.79
2023-03-24T21:12:12.669Z,11.79
2023-03-24T21:14:41.267Z,11.81
2023-03-24T21:17:08.401Z,11.84
2023-03-24T21:19:37.186Z,11.80
2023-03-24T21:22:04.076Z,11.77
2023-03-24T21:24:31.150Z,11.74
2023-03-24T21:26:57.952Z,11.71
2023-03-24T21:29:26.556Z,11.73
2023-03-24T21:31:53.443Z,11.72
2023-03-24T21:34:20.370Z,11.64
2023-03-24T21:36:49.272Z,11.62
2023-03-24T21:39:16.477Z,11.56
2023-03-24T21:41:43.370Z,11.52
2023-03-24T21:44:10.462Z,11.47
2023-03-24T21:46:37.550Z,11.49
2023-03-24T21:49:06.217Z,11.47
2023-03-24T21:51:34.635Z,11.49
2023-03-24T21:54:04.552Z,11.50
2023-03-24T21:56:34.561Z,11.46
2023-03-24T21:59:01.733Z,11.43
2023-03-24T22:01:29.058Z,11.41
2023-03-24T22:03:58.477Z,11.43
2023-03-24T22:06:28.566Z,11.41
2023-03-24T22:08:58.195Z,11.35
2023-03-24T22:11:25.774Z,11.27
2023-03-24T22:13:53.092Z,11.19
2023-03-24T22:16:20.051Z,11.16
2023-03-24T22:18:47.408Z,11.14
2023-03-24T22:21:14.725Z,11.13
2023-03-24T22:23:42.525Z,11.10
2023-03-24T22:26:16.780Z,11.04
2023-03-24T22:28:44.446Z,11.00
2023-03-24T22:31:17.053Z,11.05
2023-03-24T22:33:44.941Z,11.11
2023-03-24T22:36:12.248Z,11.16
2023-03-24T22:38:39.903Z,11.18
2023-03-24T22:41:11.467Z,11.06
2023-03-24T22:43:42.079Z,10.81
2023-03-24T22:46:12.258Z,10.42
2023-03-24T22:48:39.339Z,10.12
2023-03-24T22:51:06.765Z,9.89
2023-03-24T22:53:33.680Z,9.66
2023-03-24T22:56:00.740Z,9.50
2023-03-24T22:58:27.753Z,9.45
2023-03-24T23:00:57.197Z,9.45
2023-03-24T23:03:24.178Z,9.47
2023-03-24T23:05:52.044Z,9.43
2023-03-24T23:08:19.284Z,9.40
2023-03-24T23:10:47.644Z,9.45
2023-03-24T23:13:17.041Z,9.50
2023-03-24T23:15:44.422Z,9.58
2023-03-24T23:18:11.870Z,9.63
2023-03-24T23:20:39.361Z,9.57
2023-03-24T23:23:07.193Z,9.59
2023-03-24T23:25:43.540Z,9.63
2023-03-24T23:28:12.342Z,9.64
2023-03-24T23:30:40.672Z,9.68
2023-03-24T23:33:08.506Z,9.71
2023-03-24T23:35:37.019Z,9.75
2023-03-24T23:38:05.253Z,9.71
2023-03-24T23:40:32.150Z,9.72
2023-03-24T23:42:58.957Z,9.70
2023-03-24T23:45:26.314Z,9.70
2023-03-24T23:47:54.230Z,9.66
2023-03-24T23:50:21.067Z,9.70
2023-03-24T23:52:48.442Z,9.79
2023-03-24T23:55:18.078Z,9.87
2023-03-24T23:57:49.147Z,9.87
